EDDBEGSS

Guest
Details From EDDB - Berlin Schoenefeld
To EGSS - London Stansted
Flight Number -
Tags generated
Created
Modified
Stats Distance 491 nm / 910 km
Max Altitude 34,000 ft / 10,363 m
Waypoints 13
Social Downloads 1
Likes 0
Share VATSIM

Download

Looking for another format? Having issues loading an existing format? Contact us
Advertisement - Login to hide

Notes

Basic altitude profile: - Ascent Rate: 2500ft/min - Ascent Speed: 240kts - Cruise Altitude: 34000ft - Cruise Speed: 420kts - Descent Rate: 1500ft/min - Descent Speed: 240kts Options: - Use NATs: yes - Use PACOTS: yes - Use low airways: yes - Use high airways: yes

Route

EDDB HLZ UL980 ETEBO UG9 RKN UL480 GORLO UP20 PEVAD EGSS

ID Type Via Altitude Latitude Longitude Leg Dist Tot Dist Heading (true) Name
O EDDB APT - 0 ft / 0 m 52.37854˚ 13.52063˚ - 0 nm - Berlin Schoenefeld
HLZ VOR - 34,000 ft / 10,363 m 52.36339˚ 10.79522˚ 99 nm 99 nm 271° / 268° HEHLINGEN VOR-DME
ATROS FIX UL980 (AWY-HI) 34,000 ft / 10,363 m 52.28278˚ 10.13833˚ 24 nm 124 nm 259° / 258° -
DLE VOR UL980 (AWY-HI) 34,000 ft / 10,363 m 52.25032˚ 9.88350˚ 9 nm 134 nm 258° / 258° LEINE VOR-DME
ROBEG FIX UL980 (AWY-HI) 34,000 ft / 10,363 m 52.23362˚ 9.26962˚ 22 nm 156 nm 268° / 267° -
OSN VOR UL980 (AWY-HI) 34,000 ft / 10,363 m 52.20014˚ 8.28552˚ 36 nm 192 nm 267° / 266° OSNABRUCK VOR
AMSAN FIX UL980 (AWY-HI) 34,000 ft / 10,363 m 52.15028˚ 7.11139˚ 43 nm 236 nm 267° / 266° -
ETEBO FIX UL980 (AWY-HI) 34,000 ft / 10,363 m 52.13833˚ 6.87528˚ 8 nm 245 nm 265° / 265° -
RKN VOR UG9 (AWY-HI) 34,000 ft / 10,363 m 52.13320˚ 6.76388˚ 4 nm 249 nm 266° / 266° REKKEN VOR-DME
RENDI FIX UL480 (AWY-HI) 34,000 ft / 10,363 m 52.06167˚ 5.67750˚ 40 nm 289 nm 264° / 263° -
GORLO FIX UL480 (AWY-HI) 24,500 ft / 7,468 m 51.92407˚ 3.17184˚ 93 nm 382 nm 266° / 264° -
PEVAD FIX UP20 (AWY-HI) 18,500 ft / 5,639 m 51.91540˚ 2.66691˚ 18 nm 401 nm 269° / 268° -
O EGSS APT - 0 ft / 0 m 51.88510˚ 0.23496˚ 90 nm 491 nm 270° / 268° London Stansted

Altitude Profile

Advertisement - Login to hide

Weather


0- 5 10 15 20 25 30 35+ Temperature / ° C

Clouds and Precipitation
Forecast for 2018-05-23 12:00 UTC. Updated 22 minutes ago

Ground ~20,000 ft ~40,000 ft Winds

EDDB

Details ICAO EDDB (BER)
Name Berlin Schoenefeld
Region Germany - Civil
Timezone Europe/Berlin (UTC+2.0)
Stats Elevation 157 ft / 48 m (AMSL)
Location 52.378541° 13.520629°
Runways 2
Magnetic Variation 3.866° E

METAR

EDDB 230920Z 07011KT CAVOK 23/08 Q1021 NOSIG

Decode

TAF

TAF EDDB 230500Z 2306/2406 05007KT CAVOK= TAF EDDC 230500Z 2306/2406 06005KT 9999 SCT040 BECMG 2308/2310 08010KT TEMPO 2310/2318 SHRA SCT030CB PROB30 TEMPO 2310/2318 08015G25KT 3000 TSRA BKN030CB BECMG 2319/2321 08005KT

Decode

Departure Runways

ID Width Length Bearing (true) Bearing (mag) Surface Threshold Offset Overrun Length
07 148 ft / 45 m 9,817 ft / 2,992 m 68.75° 64.88° Asphalt 0 ft / 0 m 984 ft / 300 m
07L 148 ft / 45 m 8,867 ft / 2,703 m 68.77° 64.90° Concrete 0 ft / 0 m 525 ft / 160 m
25 148 ft / 45 m 9,817 ft / 2,992 m 248.78° 244.91° Asphalt 0 ft / 0 m 984 ft / 300 m
25R 148 ft / 45 m 8,867 ft / 2,703 m 248.80° 244.93° Concrete 0 ft / 0 m 984 ft / 300 m

EGSS

Details ICAO EGSS (STN)
Name London Stansted
Region United Kingdom
Timezone Europe/London (UTC+1.0)
Stats Elevation 348 ft / 106 m (AMSL)
Location 51.885097° 0.234962°
Runways 1
Magnetic Variation 0.298° W

METAR

EGSS 230920Z AUTO 36013KT 9000 OVC007 11/09 Q1024

Decode

TAF

TAF AMD EGSS 230917Z 2309/2412 02012KT 8000 BKN006 BECMG 2309/2312 9999 FEW040 TEMPO 2309/2319 03015G25KT PROB30 TEMPO 2316/2408 6000 SHRA

Decode

Destination Runways

ID Width Length Bearing (true) Bearing (mag) Surface Threshold Offset Overrun Length
04 151 ft / 46 m 10,011 ft / 3,052 m 42.79° 43.09° Asphalt 994 ft / 303 m 0 ft / 0 m
22 151 ft / 46 m 10,011 ft / 3,052 m 222.81° 223.11° Asphalt 0 ft / 0 m 0 ft / 0 m

Approach Navaids

Runway Type Ident Frequency Range Bearing (true) Bearing (mag) Slope Elevation
04 Localiser ISED 110.50 MHz 18 nm / 33 km 42.80° 43.10° - 348 ft / 106 m (AMSL)
04 Glidescope ISED 110.50 MHz 10 nm / 19 km 42.80° 43.10° 3.00° 348 ft / 106 m (AMSL)
04 DME ISED 110.50 MHz 18 nm / 33 km - - - 348 ft / 106 m (AMSL)
22 Localiser ISX 110.50 MHz 18 nm / 33 km 222.80° 223.10° - 348 ft / 106 m (AMSL)
22 Glidescope ISX 110.50 MHz 10 nm / 19 km 222.80° 223.10° 3.00° 348 ft / 106 m (AMSL)
22 DME ISX 110.50 MHz 18 nm / 33 km - - - 348 ft / 106 m (AMSL)

Popular Alternatives